CheckWX is a tool to help pilots better visualize weather data.  It is not intended as a substitute for an official pre-flight weather briefing.

04:51:01 UTC

AYPY METAR
Port Moresby Jacksons International Airport
Port Moresby, Papua New Guinea
Current

51 mins ago

AYPY 260400Z 14010G20KT 9999 FEW015 BKN045 26/23 Q1011
Observed
Aug-26 @ 04:00 UTC
Wind
  • 140° at 10 KTS
  • Gusting to 20 KTS
Visibility
10,000+ meters
Flight Rules
VFR
Cloud Levels
  • Few at 1,500' AGL
  • Broken at 4,500' AGL
Temperature
26°C / 79°F
Dewpoint
23°C / 73°F
Humidity
84%
Altimeter
29.85" Hg
Pressure
1010.92 hPa
Previous

2 hours ago

AYPY 260300Z 16010G20KT 9999 HZ BKN045 28/23 Q1011
Observed
Aug-26 @ 03:00 UTC
Wind
  • 160° at 10 KTS
  • Gusting to 20 KTS
Visibility
10,000+ meters
Flight Rules
VFR
Conditions
Haze
Cloud Levels
  • Broken at 4,500' AGL
Temperature
28°C / 82°F
Dewpoint
23°C / 73°F
Heat Index
31°C / 87°F
Humidity
74%
Altimeter
29.85" Hg
Pressure
1010.92 hPa
Previous

3 hours ago

AYPY 260200Z 15020KT 9999 HZ FEW020 SCT030 BKN040 29/23 Q1012
Observed
Aug-26 @ 02:00 UTC
Wind
  • 150° at 20 KTS
Visibility
10,000+ meters
Flight Rules
VFR
Conditions
Haze
Cloud Levels
  • Few at 2,000' AGL
  • Scattered at 3,000' AGL
  • Broken at 4,000' AGL
Temperature
29°C / 84°F
Dewpoint
23°C / 73°F
Heat Index
32°C / 90°F
Humidity
70%
Altimeter
29.88" Hg
Pressure
1011.92 hPa